Time;durP1;ratioP1;P1;durP2;ratioP2;P2;SDS_P1;SDS_P2;PMS_P1;PMS_P2;Temp;Humidity;BMP_temperature;BMP_pressure;BME280_temperature;BME280_humidity;BME280_pressure;Samples;Min_cycle;Max_cycle;Signal;HPM_P1;HPM_P2
2022/09/06 00:01:21;;;;;;;10.75;1.63;;;;;;;;;;4951444;29;20019;-76
2022/09/06 00:03:47;;;;;;;7.45;1.52;;;;;;;;;;4952727;28;20047;-74
2022/09/06 00:06:14;;;;;;;4.95;1.63;;;;;;;;;;4952500;29;20089;-75
2022/09/06 00:08:40;;;;;;;6.25;1.27;;;;;;;;;;4952653;28;20035;-74
2022/09/06 00:11:07;;;;;;;3.20;1.52;;;;;;;;;;4952614;29;20027;-75
2022/09/06 00:13:33;;;;;;;3.60;1.50;;;;;;;;;;4952593;28;20027;-74
2022/09/06 00:16:09;;;;;;;8.52;1.80;;;;;;;;;;4952331;29;20027;-74
2022/09/06 00:18:35;;;;;;;2.70;1.33;;;;;;;;;;4974723;23;20031;-70
2022/09/06 00:21:01;;;;;;;4.63;1.50;;;;;;;;;;4951495;29;20077;-71
2022/09/06 00:23:27;;;;;;;4.93;1.73;;;;;;;;;;4951900;29;20102;-70
2022/09/06 00:26:00;;;;;;;5.93;1.52;;;;;;;;;;4951788;29;20086;-71
2022/09/06 00:28:26;;;;;;;6.78;1.50;;;;;;;;;;4952000;28;20435;-70
2022/09/06 00:30:52;;;;;;;5.78;1.50;;;;;;;;;;4952166;28;20373;-69
2022/09/06 00:33:18;;;;;;;2.33;1.50;;;;;;;;;;4951830;28;20062;-71
2022/09/06 00:35:46;;;;;;;10.80;2.03;;;;;;;;;;4951612;29;20027;-70
2022/09/06 00:38:12;;;;;;;9.23;1.40;;;;;;;;;;4951719;28;20042;-68
2022/09/06 00:40:38;;;;;;;5.28;1.63;;;;;;;;;;4951238;28;20503;-70
2022/09/06 00:43:04;;;;;;;6.30;1.50;;;;;;;;;;4951704;29;20051;-69
2022/09/06 00:45:30;;;;;;;4.50;1.40;;;;;;;;;;4951594;29;20027;-70
2022/09/06 00:47:56;;;;;;;4.43;1.58;;;;;;;;;;4953431;28;20031;-69
2022/09/06 00:50:22;;;;;;;3.78;1.50;;;;;;;;;;4958503;28;20077;-70
2022/09/06 00:52:49;;;;;;;8.98;1.52;;;;;;;;;;4951636;29;20062;-70
2022/09/06 00:55:16;;;;;;;7.82;1.55;;;;;;;;;;4951481;28;20034;-69
2022/09/06 00:57:42;;;;;;;6.18;1.67;;;;;;;;;;4951647;29;20051;-69
2022/09/06 01:00:08;;;;;;;10.43;1.67;;;;;;;;;;4951785;28;20427;-71
2022/09/06 01:02:34;;;;;;;12.30;1.92;;;;;;;;;;4951378;28;20030;-71
2022/09/06 01:05:01;;;;;;;5.80;1.67;;;;;;;;;;4951507;29;20035;-69
2022/09/06 01:07:33;;;;;;;6.57;1.80;;;;;;;;;;4951332;29;20035;-70
2022/09/06 01:10:11;;;;;;;4.15;1.50;;;;;;;;;;4951386;28;20034;-71
2022/09/06 01:12:43;;;;;;;10.38;1.75;;;;;;;;;;4951351;28;20031;-71
2022/09/06 01:15:12;;;;;;;7.88;2.53;;;;;;;;;;4951495;28;20106;-70
2022/09/06 01:17:38;;;;;;;3.58;1.35;;;;;;;;;;4950920;29;20102;-70
2022/09/06 01:20:08;;;;;;;6.57;1.60;;;;;;;;;;4952011;28;20058;-71
2022/09/06 01:22:52;;;;;;;6.20;1.50;;;;;;;;;;4952618;29;20130;-70
2022/09/06 01:25:18;;;;;;;5.70;1.77;;;;;;;;;;4951161;29;20035;-70
2022/09/06 01:28:03;;;;;;;4.13;1.67;;;;;;;;;;4950971;28;20023;-70
2022/09/06 01:30:31;;;;;;;5.40;1.63;;;;;;;;;;4950918;28;20055;-71
2022/09/06 01:33:03;;;;;;;7.68;2.03;;;;;;;;;;4950990;28;20054;-71
2022/09/06 01:35:48;;;;;;;8.65;1.88;;;;;;;;;;4950664;29;20027;-70
2022/09/06 01:38:15;;;;;;;6.72;1.60;;;;;;;;;;4951054;29;20035;-71
2022/09/06 01:40:41;;;;;;;5.72;1.55;;;;;;;;;;4951161;28;20035;-70
2022/09/06 01:43:09;;;;;;;5.47;2.00;;;;;;;;;;4950907;29;20031;-71
2022/09/06 01:45:49;;;;;;;7.28;1.95;;;;;;;;;;4950632;29;20538;-69
2022/09/06 01:48:30;;;;;;;5.10;1.50;;;;;;;;;;4950842;28;20172;-71
2022/09/06 01:51:06;;;;;;;11.23;1.73;;;;;;;;;;4950542;29;20059;-70
2022/09/06 01:53:35;;;;;;;3.78;1.70;;;;;;;;;;4951974;29;20107;-68
2022/09/06 01:56:16;;;;;;;8.02;1.77;;;;;;;;;;4954024;28;20035;-69
2022/09/06 01:58:51;;;;;;;4.18;1.70;;;;;;;;;;4954450;28;20361;-70
2022/09/06 02:01:20;;;;;;;4.15;1.67;;;;;;;;;;4953893;28;20049;-69
2022/09/06 02:03:57;;;;;;;6.13;1.80;;;;;;;;;;4952661;29;20472;-69
2022/09/06 02:06:27;;;;;;;14.70;2.00;;;;;;;;;;4953811;29;20456;-69
2022/09/06 02:08:56;;;;;;;8.15;2.03;;;;;;;;;;4953888;28;20102;-69
2022/09/06 02:11:24;;;;;;;4.72;1.70;;;;;;;;;;4953803;29;20343;-69
2022/09/06 02:13:52;;;;;;;3.78;1.60;;;;;;;;;;4954045;29;20042;-69
2022/09/06 02:16:19;;;;;;;6.57;2.03;;;;;;;;;;4955822;28;20038;-69
2022/09/06 02:19:04;;;;;;;5.95;1.63;;;;;;;;;;4956026;28;20034;-69
2022/09/06 02:21:34;;;;;;;3.97;1.80;;;;;;;;;;4953797;29;20031;-69
2022/09/06 02:24:01;;;;;;;2.83;1.52;;;;;;;;;;4953723;29;20110;-69
2022/09/06 02:26:29;;;;;;;10.55;1.80;;;;;;;;;;4954606;29;20056;-69
2022/09/06 02:28:56;;;;;;;8.27;1.80;;;;;;;;;;4954686;28;20041;-69
2022/09/06 02:31:25;;;;;;;7.60;1.88;;;;;;;;;;4953817;28;20031;-70
2022/09/06 02:33:51;;;;;;;4.55;1.65;;;;;;;;;;4948986;28;20059;-70
2022/09/06 02:36:18;;;;;;;5.93;1.80;;;;;;;;;;4955246;28;20034;-70
2022/09/06 02:38:44;;;;;;;6.88;2.00;;;;;;;;;;4966695;28;20023;-70
2022/09/06 02:41:11;;;;;;;12.18;2.00;;;;;;;;;;4958971;28;20046;-70
2022/09/06 02:43:37;;;;;;;8.75;2.38;;;;;;;;;;4966015;28;20047;-70
2022/09/06 02:46:03;;;;;;;6.93;2.35;;;;;;;;;;4971279;28;20043;-70
2022/09/06 02:48:29;;;;;;;5.60;1.95;;;;;;;;;;4953251;28;20036;-70
2022/09/06 02:50:55;;;;;;;6.22;2.40;;;;;;;;;;4953276;28;20027;-70
2022/09/06 02:53:21;;;;;;;6.47;2.03;;;;;;;;;;4953284;28;20114;-70
2022/09/06 02:55:47;;;;;;;6.22;1.80;;;;;;;;;;4953084;28;20067;-70
2022/09/06 02:58:14;;;;;;;6.55;1.75;;;;;;;;;;4953211;28;20352;-70
2022/09/06 03:00:40;;;;;;;7.63;2.13;;;;;;;;;;4953095;28;20039;-70
2022/09/06 03:03:06;;;;;;;5.30;2.33;;;;;;;;;;4953027;28;20019;-70
2022/09/06 03:05:32;;;;;;;13.15;2.67;;;;;;;;;;4952698;28;20027;-70
2022/09/06 03:07:59;;;;;;;7.13;2.10;;;;;;;;;;4953128;28;20035;-70
2022/09/06 03:10:25;;;;;;;5.85;2.45;;;;;;;;;;4952959;28;20599;-71
2022/09/06 03:12:51;;;;;;;5.07;2.10;;;;;;;;;;4953403;28;20042;-70
2022/09/06 03:15:17;;;;;;;5.60;1.77;;;;;;;;;;4953106;28;20027;-70
2022/09/06 03:17:43;;;;;;;7.25;1.90;;;;;;;;;;4952960;28;20073;-70
2022/09/06 03:20:10;;;;;;;4.85;1.90;;;;;;;;;;4952971;28;20045;-72
2022/09/06 03:22:38;;;;;;;6.80;2.45;;;;;;;;;;4952989;28;20135;-72
2022/09/06 03:25:04;;;;;;;4.45;1.80;;;;;;;;;;4953035;28;20029;-71
2022/09/06 03:27:30;;;;;;;7.75;2.20;;;;;;;;;;4951153;28;20055;-71
2022/09/06 03:29:56;;;;;;;3.47;2.15;;;;;;;;;;4952779;28;20077;-71
2022/09/06 03:32:22;;;;;;;14.27;2.10;;;;;;;;;;4952772;28;20035;-71
2022/09/06 03:34:48;;;;;;;9.35;2.22;;;;;;;;;;4953610;28;20131;-71
2022/09/06 03:37:13;;;;;;;11.40;2.10;;;;;;;;;;4955293;28;20102;-71
2022/09/06 03:39:39;;;;;;;6.82;2.10;;;;;;;;;;4953762;28;20031;-71
2022/09/06 03:42:05;;;;;;;6.63;2.28;;;;;;;;;;4952592;28;20106;-71
2022/09/06 03:44:31;;;;;;;8.45;2.35;;;;;;;;;;4955749;28;20031;-71
2022/09/06 03:46:57;;;;;;;9.80;2.30;;;;;;;;;;4952317;28;20046;-71
2022/09/06 03:49:23;;;;;;;7.97;2.15;;;;;;;;;;4952376;28;20035;-71
2022/09/06 03:51:49;;;;;;;10.75;2.65;;;;;;;;;;4952990;29;20034;-71
2022/09/06 03:54:15;;;;;;;8.00;3.25;;;;;;;;;;4952970;28;20102;-71
2022/09/06 03:56:41;;;;;;;6.35;3.15;;;;;;;;;;4952338;28;20032;-71
2022/09/06 03:59:07;;;;;;;15.50;6.15;;;;;;;;;;4954851;28;20038;-71
2022/09/06 04:01:33;;;;;;;18.77;5.88;;;;;;;;;;4958764;28;20051;-69
2022/09/06 04:04:00;;;;;;;9.07;4.53;;;;;;;;;;4952117;28;20038;-70
2022/09/06 04:06:26;;;;;;;7.85;3.10;;;;;;;;;;4952083;28;20031;-69
2022/09/06 04:08:52;;;;;;;4.20;2.15;;;;;;;;;;4952059;28;20140;-71
2022/09/06 04:11:18;;;;;;;8.90;3.13;;;;;;;;;;4952213;28;20027;-70
2022/09/06 04:13:44;;;;;;;6.68;2.92;;;;;;;;;;4950768;28;20070;-70
2022/09/06 04:16:10;;;;;;;12.30;3.53;;;;;;;;;;4950877;28;20024;-70
2022/09/06 04:18:36;;;;;;;8.13;2.78;;;;;;;;;;4951942;28;20023;-69
2022/09/06 04:21:02;;;;;;;6.15;2.92;;;;;;;;;;4952029;28;20149;-70
2022/09/06 04:23:28;;;;;;;4.15;2.13;;;;;;;;;;4951267;28;20460;-70
2022/09/06 04:25:55;;;;;;;8.18;2.92;;;;;;;;;;4962932;28;20041;-70
2022/09/06 04:28:22;;;;;;;4.65;2.00;;;;;;;;;;4952880;28;20031;-70
2022/09/06 04:30:55;;;;;;;17.67;2.60;;;;;;;;;;4951736;28;20031;-70
2022/09/06 04:33:24;;;;;;;9.10;2.95;;;;;;;;;;4951742;28;20035;-70
2022/09/06 04:35:51;;;;;;;8.23;3.13;;;;;;;;;;4950062;28;20348;-70
2022/09/06 04:38:16;;;;;;;8.45;3.40;;;;;;;;;;4951853;28;20090;-70
2022/09/06 04:40:42;;;;;;;7.32;2.47;;;;;;;;;;4951452;28;20439;-71
2022/09/06 04:43:08;;;;;;;7.47;2.60;;;;;;;;;;4951847;28;20089;-71
2022/09/06 04:45:34;;;;;;;5.53;2.50;;;;;;;;;;4951686;28;20035;-71
2022/09/06 04:48:00;;;;;;;8.88;2.00;;;;;;;;;;4959467;28;20059;-71
2022/09/06 04:50:26;;;;;;;8.38;2.22;;;;;;;;;;4965231;28;20042;-71
2022/09/06 04:52:52;;;;;;;8.25;2.08;;;;;;;;;;4967305;28;20083;-71
2022/09/06 04:55:18;;;;;;;7.80;2.80;;;;;;;;;;4969665;28;20019;-71
2022/09/06 04:57:44;;;;;;;6.10;1.95;;;;;;;;;;4968081;28;20031;-71
2022/09/06 05:00:10;;;;;;;5.18;2.33;;;;;;;;;;4968721;28;20086;-71
2022/09/06 05:02:36;;;;;;;11.57;2.20;;;;;;;;;;4965367;28;20047;-72
2022/09/06 05:05:03;;;;;;;9.23;2.22;;;;;;;;;;4961535;28;20103;-69
2022/09/06 05:07:29;;;;;;;6.97;2.30;;;;;;;;;;4961231;28;20027;-71
2022/09/06 05:09:56;;;;;;;5.57;2.10;;;;;;;;;;4960918;28;20131;-69
2022/09/06 05:12:22;;;;;;;5.50;2.03;;;;;;;;;;4960800;28;20106;-71
2022/09/06 05:14:48;;;;;;;10.88;2.17;;;;;;;;;;4961998;28;20091;-70
2022/09/06 05:17:15;;;;;;;6.78;1.65;;;;;;;;;;4962048;28;20115;-71
2022/09/06 05:19:41;;;;;;;5.50;2.58;;;;;;;;;;4970150;28;20050;-73
2022/09/06 05:22:06;;;;;;;11.90;2.58;;;;;;;;;;4968755;28;20015;-70
2022/09/06 05:24:32;;;;;;;11.98;2.92;;;;;;;;;;4970013;28;20047;-70
2022/09/06 05:27:02;;;;;;;9.55;1.98;;;;;;;;;;4967212;28;20023;-74
2022/09/06 05:29:28;;;;;;;11.35;2.33;;;;;;;;;;4957145;28;20027;-72
2022/09/06 05:31:54;;;;;;;12.32;2.47;;;;;;;;;;4952614;28;20062;-72
2022/09/06 05:34:20;;;;;;;8.57;2.30;;;;;;;;;;4951341;28;20034;-71
2022/09/06 05:36:46;;;;;;;18.88;3.03;;;;;;;;;;4951017;28;20035;-72
2022/09/06 05:39:12;;;;;;;8.35;2.80;;;;;;;;;;4951548;28;20027;-71
2022/09/06 05:41:38;;;;;;;4.47;2.60;;;;;;;;;;4952916;28;20035;-72
2022/09/06 05:44:04;;;;;;;9.23;2.22;;;;;;;;;;4950783;28;20035;-70
2022/09/06 05:46:30;;;;;;;6.63;1.40;;;;;;;;;;4950587;29;20031;-71
2022/09/06 05:49:03;;;;;;;7.35;1.50;;;;;;;;;;4949526;28;20404;-71
2022/09/06 05:51:30;;;;;;;8.23;1.73;;;;;;;;;;4950982;28;20477;-72
2022/09/06 05:53:56;;;;;;;2.70;1.35;;;;;;;;;;4951989;28;20031;-72
2022/09/06 05:56:22;;;;;;;9.55;1.63;;;;;;;;;;4951575;28;20487;-71
2022/09/06 05:58:48;;;;;;;6.65;1.60;;;;;;;;;;4951279;28;20145;-72
2022/09/06 06:01:21;;;;;;;6.72;1.60;;;;;;;;;;4951575;28;20058;-71
2022/09/06 06:03:51;;;;;;;8.88;1.90;;;;;;;;;;4950897;28;20102;-72
2022/09/06 06:06:17;;;;;;;5.78;1.70;;;;;;;;;;4950055;28;20034;-71
2022/09/06 06:08:43;;;;;;;11.95;1.75;;;;;;;;;;4951003;28;20086;-71
2022/09/06 06:11:12;;;;;;;4.28;1.88;;;;;;;;;;4951307;28;20066;-72
2022/09/06 06:13:38;;;;;;;4.65;1.58;;;;;;;;;;4949865;28;20100;-72
2022/09/06 06:16:09;;;;;;;8.40;1.55;;;;;;;;;;4950783;28;20464;-72
2022/09/06 06:18:35;;;;;;;9.80;1.80;;;;;;;;;;4956241;28;20019;-72
2022/09/06 06:21:14;;;;;;;8.98;1.60;;;;;;;;;;4977579;23;20074;-76
2022/09/06 06:23:41;;;;;;;8.98;1.63;;;;;;;;;;4955895;29;20031;-73
2022/09/06 06:26:07;;;;;;;12.88;1.70;;;;;;;;;;4957616;29;20027;-75
2022/09/06 06:28:34;;;;;;;8.80;2.10;;;;;;;;;;4957699;29;20031;-75
2022/09/06 06:31:00;;;;;;;14.77;1.80;;;;;;;;;;4958250;28;20031;-73
2022/09/06 06:33:27;;;;;;;14.35;1.90;;;;;;;;;;4959811;28;20104;-74
2022/09/06 06:35:56;;;;;;;6.28;1.70;;;;;;;;;;4960865;28;20039;-74
2022/09/06 06:38:22;;;;;;;5.25;1.63;;;;;;;;;;4961173;29;20114;-78
2022/09/06 06:40:48;;;;;;;12.40;1.90;;;;;;;;;;4955358;28;20119;-74
2022/09/06 06:43:14;;;;;;;10.75;1.85;;;;;;;;;;4955680;28;20049;-74
2022/09/06 06:45:40;;;;;;;4.25;1.65;;;;;;;;;;4954146;28;20085;-75
2022/09/06 06:48:06;;;;;;;7.18;1.38;;;;;;;;;;4954275;28;20023;-74
2022/09/06 06:50:32;;;;;;;3.65;1.45;;;;;;;;;;4952960;28;20496;-75
2022/09/06 06:52:58;;;;;;;12.38;1.73;;;;;;;;;;4952485;28;20038;-76
2022/09/06 06:55:24;;;;;;;11.00;1.92;;;;;;;;;;4953840;28;20110;-75
2022/09/06 06:57:50;;;;;;;7.88;1.75;;;;;;;;;;4954451;28;20042;-74
2022/09/06 07:00:16;;;;;;;6.13;1.40;;;;;;;;;;4954346;28;20027;-76
2022/09/06 07:02:42;;;;;;;7.38;1.90;;;;;;;;;;4954095;28;20538;-73
2022/09/06 07:05:09;;;;;;;5.30;2.00;;;;;;;;;;4953647;28;20365;-74
2022/09/06 07:07:35;;;;;;;8.13;2.90;;;;;;;;;;4953267;28;20037;-75
2022/09/06 07:10:01;;;;;;;10.13;2.25;;;;;;;;;;4954204;28;20027;-77
2022/09/06 07:12:27;;;;;;;10.57;2.88;;;;;;;;;;4953717;28;20031;-75
2022/09/06 07:14:53;;;;;;;12.27;2.90;;;;;;;;;;4954398;28;20558;-75
2022/09/06 07:17:18;;;;;;;7.55;2.22;;;;;;;;;;4954171;28;20030;-75
2022/09/06 07:19:44;;;;;;;11.13;4.07;;;;;;;;;;4954216;28;20218;-75
2022/09/06 07:22:10;;;;;;;11.88;2.35;;;;;;;;;;4955039;28;20038;-77
2022/09/06 07:24:38;;;;;;;8.93;2.03;;;;;;;;;;4955008;28;20024;-75
2022/09/06 07:27:04;;;;;;;9.30;1.75;;;;;;;;;;4957596;28;20383;-76
2022/09/06 07:29:30;;;;;;;4.60;2.17;;;;;;;;;;4958087;28;20065;-76
2022/09/06 07:31:56;;;;;;;10.80;2.30;;;;;;;;;;4960838;28;20028;-74
2022/09/06 07:34:24;;;;;;;7.70;1.90;;;;;;;;;;4955086;28;20456;-75
2022/09/06 07:36:54;;;;;;;15.18;2.30;;;;;;;;;;4953376;28;20079;-74
2022/09/06 07:39:21;;;;;;;9.63;1.58;;;;;;;;;;4954603;28;20028;-74
2022/09/06 07:41:46;;;;;;;13.43;3.63;;;;;;;;;;4960081;28;20023;-75
2022/09/06 07:44:12;;;;;;;7.30;1.90;;;;;;;;;;4963541;28;20077;-73
2022/09/06 07:46:38;;;;;;;5.07;1.65;;;;;;;;;;4963168;28;20031;-74
2022/09/06 07:49:05;;;;;;;8.32;3.50;;;;;;;;;;4957417;28;20035;-75
2022/09/06 07:51:31;;;;;;;10.68;1.70;;;;;;;;;;4953715;28;20106;-74
2022/09/06 07:53:57;;;;;;;5.97;2.40;;;;;;;;;;4955512;28;20039;-75
2022/09/06 07:56:24;;;;;;;13.15;1.60;;;;;;;;;;4954393;28;20035;-74
2022/09/06 07:58:51;;;;;;;6.72;1.58;;;;;;;;;;4953827;28;20030;-75
2022/09/06 08:01:31;;;;;;;16.55;1.90;;;;;;;;;;4953904;28;20454;-73
2022/09/06 08:03:57;;;;;;;7.22;1.92;;;;;;;;;;4955121;28;20023;-74
2022/09/06 08:06:24;;;;;;;7.82;1.80;;;;;;;;;;4954915;28;20485;-74
2022/09/06 08:08:50;;;;;;;15.70;2.05;;;;;;;;;;4956322;28;20038;-75
2022/09/06 08:11:16;;;;;;;9.55;2.05;;;;;;;;;;4961133;28;20053;-74
2022/09/06 08:13:43;;;;;;;10.50;1.60;;;;;;;;;;4959903;28;20055;-74
2022/09/06 08:16:10;;;;;;;8.65;1.73;;;;;;;;;;4953601;28;20023;-73
2022/09/06 08:18:36;;;;;;;10.27;1.95;;;;;;;;;;4953375;28;20020;-74
2022/09/06 08:21:24;;;;;;;6.80;1.98;;;;;;;;;;4953372;28;20046;-74
2022/09/06 08:24:00;;;;;;;11.50;2.13;;;;;;;;;;4953096;28;20019;-75
2022/09/06 08:26:27;;;;;;;7.32;1.60;;;;;;;;;;4953229;28;20039;-73
2022/09/06 08:28:58;;;;;;;9.45;1.70;;;;;;;;;;4953080;28;20515;-75
2022/09/06 08:31:24;;;;;;;8.35;1.85;;;;;;;;;;4952025;28;20035;-75
2022/09/06 08:33:51;;;;;;;14.68;2.20;;;;;;;;;;4952920;28;20107;-74
2022/09/06 08:36:17;;;;;;;11.82;1.70;;;;;;;;;;4952236;28;20027;-74
2022/09/06 08:38:44;;;;;;;12.48;2.10;;;;;;;;;;4952899;28;20031;-74
2022/09/06 08:41:16;;;;;;;11.75;1.80;;;;;;;;;;4954042;28;20041;-76
2022/09/06 08:43:50;;;;;;;8.43;1.95;;;;;;;;;;4956889;28;20042;-74
2022/09/06 08:46:16;;;;;;;;;;;;;;;;;;4972658;28;20039;-73
2022/09/06 08:48:42;;;;;;;15.27;2.15;;;;;;;;;;4971486;28;19910;-77
2022/09/06 08:51:08;;;;;;;14.02;2.70;;;;;;;;;;4956979;28;20077;-77
2022/09/06 08:53:38;;;;;;;10.65;1.95;;;;;;;;;;4955445;28;20028;-73
2022/09/06 08:56:23;;;;;;;9.80;2.35;;;;;;;;;;4951969;28;20035;-74
2022/09/06 08:58:51;;;;;;;11.60;2.30;;;;;;;;;;4952416;28;20420;-75
2022/09/06 09:01:21;;;;;;;12.80;2.03;;;;;;;;;;4951987;28;20026;-75
2022/09/06 09:03:47;;;;;;;18.10;1.88;;;;;;;;;;4952181;28;20042;-74
2022/09/06 09:06:13;;;;;;;10.75;2.20;;;;;;;;;;4950587;28;20085;-73
2022/09/06 09:08:58;;;;;;;9.55;2.42;;;;;;;;;;4952359;28;20384;-74
2022/09/06 09:11:24;;;;;;;6.03;2.05;;;;;;;;;;4953779;28;20067;-75
2022/09/06 09:14:05;;;;;;;8.38;2.28;;;;;;;;;;4956277;28;20023;-73
2022/09/06 09:16:32;;;;;;;15.70;2.00;;;;;;;;;;4966335;28;20038;-72
2022/09/06 09:19:00;;;;;;;10.55;2.50;;;;;;;;;;4973256;28;20043;-73
2022/09/06 09:21:27;;;;;;;5.63;2.15;;;;;;;;;;4971986;28;20032;-73
2022/09/06 09:23:54;;;;;;;8.23;1.83;;;;;;;;;;4971533;28;20042;-73
2022/09/06 09:26:21;;;;;;;11.88;2.53;;;;;;;;;;4964548;28;20077;-74
2022/09/06 09:29:04;;;;;;;26.90;2.53;;;;;;;;;;4953905;28;20110;-74
2022/09/06 09:31:42;;;;;;;9.73;2.45;;;;;;;;;;4952307;28;20027;-74
2022/09/06 09:34:27;;;;;;;14.10;2.45;;;;;;;;;;4951922;28;20035;-74
2022/09/06 09:37:11;;;;;;;8.95;2.25;;;;;;;;;;4960859;28;20031;-73
2022/09/06 09:39:38;;;;;;;16.20;1.92;;;;;;;;;;4962914;28;20046;-72
2022/09/06 09:42:04;;;;;;;14.13;2.38;;;;;;;;;;4966080;28;20031;-75
2022/09/06 09:44:30;;;;;;;6.15;2.38;;;;;;;;;;4960180;28;20035;-74
2022/09/06 09:46:56;;;;;;;12.75;2.35;;;;;;;;;;4962722;28;20032;-75
2022/09/06 09:49:25;;;;;;;10.65;2.67;;;;;;;;;;4958421;28;20088;-75
2022/09/06 09:52:09;;;;;;;12.70;2.47;;;;;;;;;;4951870;28;20030;-74
2022/09/06 09:54:36;;;;;;;17.98;2.53;;;;;;;;;;4951787;28;20106;-74
2022/09/06 09:57:06;;;;;;;16.60;7.00;;;;;;;;;;4951888;28;20635;-74
2022/09/06 09:59:44;;;;;;;17.67;3.15;;;;;;;;;;4952226;28;20120;-73
2022/09/06 10:02:24;;;;;;;14.15;3.70;;;;;;;;;;4952108;28;20394;-75
2022/09/06 10:04:52;;;;;;;20.10;3.70;;;;;;;;;;4950709;28;20019;-75
2022/09/06 10:07:22;;;;;;;11.07;3.20;;;;;;;;;;4952186;28;20120;-74
2022/09/06 10:09:59;;;;;;;14.20;3.70;;;;;;;;;;4951292;28;20031;-73
2022/09/06 10:12:30;;;;;;;13.13;2.95;;;;;;;;;;4952082;28;20095;-74
2022/09/06 10:14:56;;;;;;;12.55;3.58;;;;;;;;;;4952868;28;20456;-75
2022/09/06 10:17:34;;;;;;;6.05;2.28;;;;;;;;;;4953132;28;20114;-75
2022/09/06 10:20:02;;;;;;;8.20;2.15;;;;;;;;;;4955095;28;20046;-73
2022/09/06 10:22:32;;;;;;;8.57;2.90;;;;;;;;;;4955043;28;20050;-75
2022/09/06 10:25:07;;;;;;;11.20;2.95;;;;;;;;;;4955704;28;20110;-75
2022/09/06 10:27:33;;;;;;;8.73;2.42;;;;;;;;;;4955535;28;20094;-75
2022/09/06 10:29:58;;;;;;;8.52;2.70;;;;;;;;;;4955341;28;20122;-75
2022/09/06 10:32:34;;;;;;;13.15;2.40;;;;;;;;;;4956504;28;20441;-75
2022/09/06 10:35:04;;;;;;;12.88;3.05;;;;;;;;;;4956511;28;20038;-75
2022/09/06 10:37:33;;;;;;;4.88;2.58;;;;;;;;;;4965812;28;20051;-74
2022/09/06 10:40:08;;;;;;;10.43;2.30;;;;;;;;;;4965162;28;20077;-75
2022/09/06 10:42:48;;;;;;;15.23;2.85;;;;;;;;;;4976339;28;20009;-74
2022/09/06 10:45:14;;;;;;;6.53;2.97;;;;;;;;;;4960190;28;20038;-74
2022/09/06 10:47:55;;;;;;;32.88;3.45;;;;;;;;;;4976611;28;20035;-73
2022/09/06 10:50:24;;;;;;;16.38;2.72;;;;;;;;;;5029409;28;20025;-74
2022/09/06 10:52:51;;;;;;;12.70;2.90;;;;;;;;;;4968863;28;20023;-73
2022/09/06 10:55:17;;;;;;;15.60;2.65;;;;;;;;;;4984628;28;20024;-73
2022/09/06 10:57:48;;;;;;;7.35;2.30;;;;;;;;;;4971449;28;20027;-73
2022/09/06 11:00:15;;;;;;;7.35;2.35;;;;;;;;;;5006595;28;20027;-75
2022/09/06 11:02:51;;;;;;;16.02;2.80;;;;;;;;;;4975533;28;20019;-73
2022/09/06 11:05:22;;;;;;;10.05;2.75;;;;;;;;;;4999933;28;20525;-75
2022/09/06 11:08:14;;;;;;;13.93;3.28;;;;;;;;;;4993550;28;20024;-74
2022/09/06 11:10:44;;;;;;;8.88;2.80;;;;;;;;;;4998374;28;20150;-74
2022/09/06 11:13:10;;;;;;;13.15;2.88;;;;;;;;;;4985925;28;20050;-75
2022/09/06 11:15:47;;;;;;;15.25;2.60;;;;;;;;;;4981689;28;20024;-75
2022/09/06 11:18:29;;;;;;;8.65;2.45;;;;;;;;;;4991047;28;20021;-74
2022/09/06 11:21:16;;;;;;;11.23;2.30;;;;;;;;;;4978797;28;20081;-75
2022/09/06 11:23:51;;;;;;;17.05;3.28;;;;;;;;;;4984698;28;20031;-74
2022/09/06 11:26:33;;;;;;;11.13;2.72;;;;;;;;;;4989270;28;20054;-75
2022/09/06 11:29:01;;;;;;;21.25;3.60;;;;;;;;;;4986553;28;20049;-74
2022/09/06 11:31:28;;;;;;;7.28;2.92;;;;;;;;;;4956714;28;20023;-74
2022/09/06 11:34:07;;;;;;;6.57;2.10;;;;;;;;;;4953186;29;20377;-74
2022/09/06 11:36:35;;;;;;;9.10;2.45;;;;;;;;;;4953503;29;20061;-76
2022/09/06 11:39:02;;;;;;;10.27;2.17;;;;;;;;;;4953112;28;20097;-76
2022/09/06 11:41:37;;;;;;;9.68;1.90;;;;;;;;;;4952152;28;20481;-74
2022/09/06 11:44:03;;;;;;;16.55;3.00;;;;;;;;;;4955030;29;20028;-74
2022/09/06 11:46:32;;;;;;;10.18;2.40;;;;;;;;;;4962246;28;20036;-74
2022/09/06 11:49:01;;;;;;;15.88;2.25;;;;;;;;;;4959580;28;20020;-74
2022/09/06 11:51:32;;;;;;;7.10;2.10;;;;;;;;;;4962718;28;20149;-75
2022/09/06 11:53:58;;;;;;;7.45;2.13;;;;;;;;;;4964256;28;20069;-73
2022/09/06 11:56:30;;;;;;;15.18;2.95;;;;;;;;;;4966155;28;20513;-74
2022/09/06 11:59:04;;;;;;;11.15;2.20;;;;;;;;;;4951784;28;20464;-74
2022/09/06 12:01:30;;;;;;;12.93;2.20;;;;;;;;;;4953584;28;20043;-75
2022/09/06 12:04:00;;;;;;;9.90;2.10;;;;;;;;;;4953001;28;20029;-75
2022/09/06 12:06:29;;;;;;;10.75;2.42;;;;;;;;;;4951354;28;20027;-75
2022/09/06 12:08:56;;;;;;;8.52;2.55;;;;;;;;;;4952741;28;20274;-76
2022/09/06 12:11:28;;;;;;;9.07;2.35;;;;;;;;;;4953673;28;20031;-74
2022/09/06 12:14:05;;;;;;;10.77;2.53;;;;;;;;;;4960451;29;20050;-76
2022/09/06 12:16:50;;;;;;;12.65;2.30;;;;;;;;;;4970679;28;20091;-75
2022/09/06 12:19:34;;;;;;;6.72;2.53;;;;;;;;;;4988354;23;20118;-76
2022/09/06 12:22:00;;;;;;;9.02;2.47;;;;;;;;;;4935502;29;20040;-77
2022/09/06 12:24:37;;;;;;;8.50;2.15;;;;;;;;;;4935339;29;20538;-77
2022/09/06 12:27:16;;;;;;;12.63;2.28;;;;;;;;;;4935611;29;20019;-76
2022/09/06 12:29:53;;;;;;;7.10;2.20;;;;;;;;;;4939456;29;20032;-76
2022/09/06 12:32:21;;;;;;;8.63;2.45;;;;;;;;;;4938250;29;20031;-75
2022/09/06 12:34:47;;;;;;;11.43;2.55;;;;;;;;;;4938335;29;20055;-75
2022/09/06 12:37:13;;;;;;;9.27;2.28;;;;;;;;;;4938821;29;20043;-75
2022/09/06 12:39:39;;;;;;;7.70;2.40;;;;;;;;;;4935482;28;20032;-77
2022/09/06 12:42:15;;;;;;;8.05;2.42;;;;;;;;;;4933284;29;20020;-74
2022/09/06 12:44:43;;;;;;;8.73;2.50;;;;;;;;;;4934913;29;20028;-77
2022/09/06 12:47:11;;;;;;;4.10;2.25;;;;;;;;;;4934507;29;20062;-76
2022/09/06 12:49:37;;;;;;;5.38;1.77;;;;;;;;;;4935178;29;20043;-75
2022/09/06 12:52:11;;;;;;;9.07;2.53;;;;;;;;;;4935013;29;20461;-77
2022/09/06 12:54:45;;;;;;;10.63;2.45;;;;;;;;;;4934338;29;20035;-76
2022/09/06 12:57:21;;;;;;;12.55;3.15;;;;;;;;;;4933656;29;20512;-76
2022/09/06 12:59:49;;;;;;;10.38;2.53;;;;;;;;;;4934025;29;20473;-75
2022/09/06 13:02:16;;;;;;;10.02;3.00;;;;;;;;;;4933324;29;20050;-77
2022/09/06 13:05:15;;;;;;;16.35;2.85;;;;;;;;;;4934598;29;20035;-77
2022/09/06 13:07:46;;;;;;;14.63;3.22;;;;;;;;;;4912954;29;20036;-75
2022/09/06 13:10:13;;;;;;;12.73;2.50;;;;;;;;;;4934466;29;20047;-76
2022/09/06 13:12:42;;;;;;;9.18;2.95;;;;;;;;;;4934601;29;20024;-76
2022/09/06 13:15:12;;;;;;;16.67;2.83;;;;;;;;;;4935182;29;20039;-77
2022/09/06 13:17:38;;;;;;;13.60;2.80;;;;;;;;;;4934097;29;20035;-75
2022/09/06 13:20:15;;;;;;;15.20;2.47;;;;;;;;;;4934677;29;20182;-77
2022/09/06 13:22:46;;;;;;;7.38;2.03;;;;;;;;;;4935725;29;20027;-76
2022/09/06 13:25:17;;;;;;;6.70;2.65;;;;;;;;;;4934651;29;20062;-76
2022/09/06 13:27:44;;;;;;;7.70;2.42;;;;;;;;;;4935107;29;20245;-76
2022/09/06 13:30:28;;;;;;;12.63;2.40;;;;;;;;;;4935453;29;20024;-78
2022/09/06 13:32:54;;;;;;;15.75;3.05;;;;;;;;;;4934519;29;20042;-76
2022/09/06 13:35:24;;;;;;;6.82;2.30;;;;;;;;;;4934401;29;20091;-77
2022/09/06 13:37:50;;;;;;;8.85;2.42;;;;;;;;;;4937298;29;20081;-76
2022/09/06 13:40:35;;;;;;;11.73;2.60;;;;;;;;;;4933747;29;20039;-76
2022/09/06 13:43:01;;;;;;;7.97;2.05;;;;;;;;;;4936419;29;20107;-79
2022/09/06 13:45:28;;;;;;;4.25;2.08;;;;;;;;;;4936544;29;20488;-75
2022/09/06 13:47:55;;;;;;;11.27;2.10;;;;;;;;;;4935813;29;20315;-74
2022/09/06 13:50:22;;;;;;;7.63;2.38;;;;;;;;;;4950534;29;20028;-74
2022/09/06 13:52:48;;;;;;;7.15;2.00;;;;;;;;;;4952740;29;20245;-75
2022/09/06 13:55:15;;;;;;;7.63;2.67;;;;;;;;;;4944101;29;20055;-77
2022/09/06 13:57:41;;;;;;;13.88;2.20;;;;;;;;;;4939070;29;20090;-76
2022/09/06 14:00:08;;;;;;;8.10;2.50;;;;;;;;;;4939364;29;20081;-75
2022/09/06 14:02:34;;;;;;;10.60;2.20;;;;;;;;;;4941728;29;20035;-75
2022/09/06 14:05:00;;;;;;;19.88;2.53;;;;;;;;;;4941360;29;20051;-76
2022/09/06 14:07:26;;;;;;;7.00;2.35;;;;;;;;;;4939030;29;20436;-77
2022/09/06 14:09:52;;;;;;;17.38;2.30;;;;;;;;;;4936291;29;20028;-76
2022/09/06 14:12:18;;;;;;;3.65;2.20;;;;;;;;;;4938691;29;20024;-75
2022/09/06 14:14:44;;;;;;;7.90;2.63;;;;;;;;;;4938754;29;20034;-78
2022/09/06 14:17:10;;;;;;;8.20;2.67;;;;;;;;;;4940396;29;20051;-77
2022/09/06 14:19:36;;;;;;;5.20;2.13;;;;;;;;;;4941355;29;20024;-75
2022/09/06 14:22:03;;;;;;;8.85;2.40;;;;;;;;;;4946496;29;20034;-77
2022/09/06 14:24:29;;;;;;;12.50;2.55;;;;;;;;;;4945660;29;20448;-80
2022/09/06 14:26:55;;;;;;;7.10;2.58;;;;;;;;;;4950005;29;20027;-74
2022/09/06 14:29:22;;;;;;;9.65;2.40;;;;;;;;;;4937600;29;20039;-76
2022/09/06 14:31:48;;;;;;;5.82;2.35;;;;;;;;;;4937143;29;20027;-76
2022/09/06 14:34:14;;;;;;;12.57;2.35;;;;;;;;;;4937312;29;20389;-76
2022/09/06 14:36:40;;;;;;;7.78;2.03;;;;;;;;;;4938645;29;20032;-76
2022/09/06 14:39:06;;;;;;;4.50;2.08;;;;;;;;;;4943065;28;20054;-76
2022/09/06 14:41:32;;;;;;;11.23;2.58;;;;;;;;;;4938396;29;20036;-76
2022/09/06 14:43:58;;;;;;;9.00;2.75;;;;;;;;;;4941054;28;20137;-76
2022/09/06 14:46:25;;;;;;;14.40;2.80;;;;;;;;;;4942039;29;20032;-75
2022/09/06 14:49:01;;;;;;;16.02;3.60;;;;;;;;;;4941193;29;20023;-76